createdAt,value
2019-05-13T00:02:21.116Z,6.35
2019-05-13T00:04:53.247Z,6.31
2019-05-13T00:07:23.945Z,6.30
2019-05-13T00:09:54.448Z,6.31
2019-05-13T00:12:24.459Z,6.30
2019-05-13T00:14:54.467Z,6.28
2019-05-13T00:17:24.456Z,6.29
2019-05-13T00:19:55.973Z,6.29
2019-05-13T00:22:25.975Z,6.25
2019-05-13T00:24:55.953Z,6.27
2019-05-13T00:27:26.054Z,6.21
2019-05-13T00:29:56.400Z,6.17
2019-05-13T00:32:26.388Z,6.12
2019-05-13T00:34:56.380Z,6.09
2019-05-13T00:37:26.546Z,6.09
2019-05-13T00:39:56.551Z,6.04
2019-05-13T00:42:29.788Z,6.02
2019-05-13T00:45:03.853Z,6.07
2019-05-13T00:47:34.209Z,6.09
2019-05-13T00:50:05.816Z,6.07
2019-05-13T00:52:36.372Z,6.05
2019-05-13T00:55:10.128Z,6.05
2019-05-13T00:57:43.674Z,6.02
2019-05-13T01:00:14.398Z,5.98
2019-05-13T01:02:46.111Z,5.95
2019-05-13T01:05:16.493Z,5.96
2019-05-13T01:07:46.471Z,5.98
2019-05-13T01:10:16.617Z,5.96
2019-05-13T01:12:46.617Z,5.88
2019-05-13T01:15:16.755Z,5.89
2019-05-13T01:17:46.739Z,5.87
2019-05-13T01:20:17.961Z,5.80
2019-05-13T01:22:49.020Z,5.76
2019-05-13T01:25:19.039Z,5.76
2019-05-13T01:27:53.604Z,5.75
2019-05-13T01:30:25.762Z,5.71
2019-05-13T01:32:56.065Z,5.72
2019-05-13T01:35:26.072Z,5.69
2019-05-13T01:37:58.815Z,5.63
2019-05-13T01:40:28.957Z,5.59
2019-05-13T01:42:59.203Z,5.57
2019-05-13T01:45:29.277Z,5.55
2019-05-13T01:47:59.327Z,5.57
2019-05-13T01:50:30.929Z,5.58
2019-05-13T01:53:01.006Z,5.59
2019-05-13T01:55:33.961Z,5.56
2019-05-13T01:58:04.310Z,5.52
2019-05-13T02:00:35.591Z,5.51
2019-05-13T02:03:05.853Z,5.49
2019-05-13T02:05:35.861Z,5.49
2019-05-13T02:08:06.087Z,5.52
2019-05-13T02:10:56.106Z,5.49
2019-05-13T02:13:26.333Z,5.47
2019-05-13T02:15:57.569Z,5.41
2019-05-13T02:18:28.901Z,5.42
2019-05-13T02:20:58.827Z,5.45
2019-05-13T02:23:28.814Z,5.44
2019-05-13T02:25:58.889Z,5.40
2019-05-13T02:28:28.886Z,5.44
2019-05-13T02:30:58.898Z,5.34
2019-05-13T02:33:29.541Z,5.28
2019-05-13T02:36:02.623Z,5.20
2019-05-13T02:38:35.505Z,5.18
2019-05-13T02:41:03.431Z,5.17
2019-05-13T02:43:33.746Z,5.14
2019-05-13T02:46:04.535Z,5.08
2019-05-13T02:48:34.721Z,5.01
2019-05-13T02:51:04.818Z,4.97
2019-05-13T02:53:35.881Z,4.92
2019-05-13T02:56:05.988Z,4.82
2019-05-13T02:58:36.615Z,4.74
2019-05-13T03:01:06.632Z,4.74
2019-05-13T03:03:36.628Z,4.73
2019-05-13T03:06:06.637Z,4.74
2019-05-13T03:08:46.368Z,4.82
2019-05-13T03:11:08.334Z,4.80
2019-05-13T03:13:38.408Z,4.85
2019-05-13T03:16:13.221Z,4.87
2019-05-13T03:18:43.616Z,4.91
2019-05-13T03:21:13.660Z,4.96
2019-05-13T03:23:44.462Z,4.94
2019-05-13T03:26:15.776Z,4.89
2019-05-13T03:28:45.849Z,4.84
2019-05-13T03:31:18.038Z,4.81
2019-05-13T03:33:55.985Z,4.83
2019-05-13T03:36:25.754Z,4.89
2019-05-13T03:39:05.264Z,4.91
2019-05-13T03:41:32.721Z,4.87
2019-05-13T03:44:03.312Z,4.82
2019-05-13T03:46:37.035Z,4.86
2019-05-13T03:49:13.915Z,4.88
2019-05-13T03:51:42.887Z,4.85
2019-05-13T03:54:18.234Z,4.84
2019-05-13T03:56:48.381Z,4.87
2019-05-13T03:59:18.523Z,4.88
2019-05-13T04:01:52.183Z,4.92
2019-05-13T04:04:23.286Z,4.87
2019-05-13T04:06:53.176Z,4.87
2019-05-13T04:09:31.135Z,4.91
2019-05-13T04:11:55.096Z,4.96
2019-05-13T04:14:25.348Z,4.97
2019-05-13T04:16:55.448Z,4.96
2019-05-13T04:19:25.521Z,5.01
2019-05-13T04:21:55.593Z,5.02
2019-05-13T04:24:25.650Z,5.02
2019-05-13T04:26:55.727Z,5.01
2019-05-13T04:29:25.888Z,5.03
2019-05-13T04:31:56.025Z,5.12
2019-05-13T04:34:26.164Z,5.10
2019-05-13T04:37:02.146Z,5.16
2019-05-13T04:39:44.617Z,5.17
2019-05-13T04:42:03.060Z,5.18
2019-05-13T04:44:33.302Z,5.28
2019-05-13T04:47:04.200Z,5.32
2019-05-13T04:49:34.393Z,5.34
2019-05-13T04:52:05.826Z,5.38
2019-05-13T04:54:36.923Z,5.45
2019-05-13T04:57:07.003Z,5.45
2019-05-13T04:59:40.350Z,5.50
2019-05-13T05:02:37.309Z,5.57
2019-05-13T05:05:17.830Z,5.66
2019-05-13T05:08:15.008Z,5.69
2019-05-13T05:10:57.126Z,5.78
2019-05-13T05:13:42.953Z,5.83
2019-05-13T05:16:41.076Z,5.84
2019-05-13T05:19:47.329Z,5.90
2019-05-13T05:22:22.167Z,5.91
2019-05-13T05:25:01.768Z,6.00
2019-05-13T05:27:43.410Z,6.09
2019-05-13T05:30:37.104Z,6.19
2019-05-13T05:33:43.498Z,6.31
2019-05-13T05:36:47.076Z,6.44
2019-05-13T05:39:27.731Z,6.55
2019-05-13T05:41:58.874Z,6.60
2019-05-13T05:44:32.458Z,6.63
2019-05-13T05:47:03.848Z,6.71
2019-05-13T05:49:33.996Z,6.80
2019-05-13T05:52:12.280Z,6.81
2019-05-13T05:54:42.350Z,6.93
2019-05-13T05:57:12.477Z,7.00
2019-05-13T05:59:42.969Z,7.11
2019-05-13T06:02:13.774Z,7.27
2019-05-13T06:04:46.870Z,7.35
2019-05-13T06:07:17.215Z,7.41
2019-05-13T06:09:47.355Z,7.43
2019-05-13T06:12:21.362Z,7.50
2019-05-13T06:14:52.468Z,7.71
2019-05-13T06:17:22.860Z,7.79
2019-05-13T06:19:52.935Z,7.89
2019-05-13T06:22:22.987Z,7.91
2019-05-13T06:24:53.147Z,8.03
2019-05-13T06:27:26.248Z,8.13
2019-05-13T06:29:56.855Z,8.18
2019-05-13T06:32:27.003Z,8.24
2019-05-13T06:34:57.365Z,8.37
2019-05-13T06:37:27.493Z,8.54
2019-05-13T06:39:57.567Z,8.67
2019-05-13T06:42:27.574Z,8.67
2019-05-13T06:44:57.635Z,8.85
2019-05-13T06:47:27.665Z,8.93
2019-05-13T06:49:57.749Z,8.91
2019-05-13T06:52:27.818Z,8.99
2019-05-13T06:54:57.865Z,9.03
2019-05-13T06:57:27.942Z,9.15
2019-05-13T06:59:57.946Z,9.26
2019-05-13T07:02:27.938Z,9.42
2019-05-13T07:05:02.076Z,9.69
2019-05-13T07:07:31.898Z,9.75
2019-05-13T07:10:02.766Z,9.77
2019-05-13T07:12:32.906Z,9.87
2019-05-13T07:15:03.514Z,10.00
2019-05-13T07:17:34.044Z,10.06
2019-05-13T07:20:11.358Z,10.06
2019-05-13T07:22:43.289Z,10.17
2019-05-13T07:25:13.538Z,10.29
2019-05-13T07:27:43.622Z,10.43
2019-05-13T07:30:16.370Z,10.62
2019-05-13T07:32:46.532Z,10.47
2019-05-13T07:35:16.976Z,10.51
2019-05-13T07:37:51.636Z,10.65
2019-05-13T07:40:22.211Z,10.86
2019-05-13T07:42:52.923Z,10.75
2019-05-13T07:45:22.921Z,10.81
2019-05-13T07:47:53.112Z,10.89
2019-05-13T07:50:25.562Z,11.19
2019-05-13T07:52:58.435Z,11.33
2019-05-13T07:55:31.614Z,11.59
2019-05-13T07:58:02.229Z,11.59
2019-05-13T08:00:32.714Z,11.65
2019-05-13T08:03:02.964Z,11.69
2019-05-13T08:05:33.093Z,11.82
2019-05-13T08:08:03.158Z,11.83
2019-05-13T08:10:33.255Z,11.59
2019-05-13T08:13:03.251Z,11.80
2019-05-13T08:15:33.272Z,11.93
2019-05-13T08:18:03.432Z,11.81
2019-05-13T08:20:36.272Z,12.04
2019-05-13T08:23:07.807Z,12.10
2019-05-13T08:25:38.002Z,12.31
2019-05-13T08:28:12.274Z,12.49
2019-05-13T08:30:43.088Z,12.72
2019-05-13T08:33:13.373Z,12.69
2019-05-13T08:35:52.230Z,12.54
2019-05-13T08:38:15.249Z,12.53
2019-05-13T08:40:45.380Z,12.63
2019-05-13T08:43:15.387Z,12.79
2019-05-13T08:45:45.554Z,12.76
2019-05-13T08:48:23.872Z,12.91
2019-05-13T08:50:55.272Z,12.98
2019-05-13T08:53:28.860Z,12.94
2019-05-13T08:55:58.880Z,13.25
2019-05-13T08:58:28.892Z,13.44
2019-05-13T09:01:01.868Z,13.59
2019-05-13T09:03:32.604Z,13.73
2019-05-13T09:06:03.066Z,13.78
2019-05-13T09:08:33.283Z,13.85
2019-05-13T09:11:03.380Z,14.10
2019-05-13T09:13:33.530Z,14.22
2019-05-13T09:16:03.929Z,14.26
2019-05-13T09:18:35.028Z,14.23
2019-05-13T09:21:06.844Z,14.33
2019-05-13T09:23:36.861Z,13.98
2019-05-13T09:26:06.930Z,14.05
2019-05-13T09:28:37.192Z,14.07
2019-05-13T09:31:07.270Z,14.31
2019-05-13T09:33:37.371Z,14.26
2019-05-13T09:36:08.448Z,14.03
2019-05-13T09:38:41.973Z,14.28
2019-05-13T09:41:12.496Z,14.59
2019-05-13T09:43:42.533Z,14.79
2019-05-13T09:46:12.926Z,14.64
2019-05-13T09:48:42.946Z,14.79
2019-05-13T09:51:12.964Z,14.82
2019-05-13T09:53:43.237Z,14.77
2019-05-13T09:56:14.412Z,14.77
2019-05-13T09:58:44.394Z,14.57
2019-05-13T10:01:14.478Z,14.72
2019-05-13T10:03:53.787Z,14.89
2019-05-13T10:06:16.198Z,15.15
2019-05-13T10:08:46.191Z,15.14
2019-05-13T10:11:16.299Z,15.53
2019-05-13T10:13:46.422Z,15.41
2019-05-13T10:16:16.507Z,15.52
2019-05-13T10:18:46.508Z,15.71
2019-05-13T10:21:16.775Z,15.66
2019-05-13T10:23:46.949Z,15.62
2019-05-13T10:26:17.393Z,15.57
2019-05-13T10:28:47.952Z,15.71
2019-05-13T10:31:18.099Z,15.85
2019-05-13T10:33:51.575Z,15.76
2019-05-13T10:36:22.579Z,16.03
2019-05-13T10:38:52.880Z,15.89
2019-05-13T10:41:23.218Z,15.77
2019-05-13T10:43:56.197Z,15.82
2019-05-13T10:46:26.283Z,15.87
2019-05-13T10:48:56.287Z,16.05
2019-05-13T10:51:26.629Z,16.06
2019-05-13T10:53:59.735Z,16.15
2019-05-13T10:56:32.915Z,16.00
2019-05-13T10:59:04.706Z,15.79
2019-05-13T11:01:34.801Z,15.93
2019-05-13T11:04:04.946Z,15.93
2019-05-13T11:06:35.127Z,16.10
2019-05-13T11:09:08.663Z,16.40
2019-05-13T11:11:41.420Z,16.38
2019-05-13T11:14:15.668Z,16.52
2019-05-13T11:16:47.555Z,16.43
2019-05-13T11:19:17.650Z,16.28
2019-05-13T11:21:50.833Z,16.19
2019-05-13T11:24:22.857Z,15.99
2019-05-13T11:26:53.372Z,16.26
2019-05-13T11:29:23.452Z,16.56
2019-05-13T11:31:53.602Z,16.64
2019-05-13T11:34:27.558Z,16.72
2019-05-13T11:36:59.103Z,16.81
2019-05-13T11:39:29.114Z,16.77
2019-05-13T11:42:02.050Z,16.81
2019-05-13T11:44:32.583Z,16.50
2019-05-13T11:47:03.100Z,16.18
2019-05-13T11:49:33.238Z,16.23
2019-05-13T11:52:03.326Z,16.46
2019-05-13T11:54:36.731Z,16.30
2019-05-13T11:57:08.376Z,16.65
2019-05-13T11:59:38.460Z,16.82
2019-05-13T12:02:13.251Z,16.51
2019-05-13T12:04:44.037Z,16.18
2019-05-13T12:07:13.673Z,15.65
2019-05-13T12:09:46.508Z,15.51
2019-05-13T12:12:16.531Z,15.82
2019-05-13T12:15:17.780Z,16.34
2019-05-13T12:17:18.790Z,16.69
2019-05-13T12:19:49.071Z,16.85
2019-05-13T12:22:22.724Z,17.17
2019-05-13T12:24:52.082Z,16.87
2019-05-13T12:27:22.370Z,16.59
2019-05-13T12:29:53.040Z,16.64
2019-05-13T12:32:23.214Z,16.39
2019-05-13T12:34:55.799Z,16.13
2019-05-13T12:37:25.907Z,16.48
2019-05-13T12:39:55.931Z,16.80
2019-05-13T12:42:25.955Z,17.17
2019-05-13T12:45:08.263Z,17.42
2019-05-13T12:47:27.815Z,17.34
2019-05-13T12:49:57.813Z,17.12
2019-05-13T12:52:27.835Z,16.99
2019-05-13T12:54:57.899Z,16.84
2019-05-13T12:57:28.080Z,17.20
2019-05-13T12:59:58.411Z,17.18
2019-05-13T13:02:28.468Z,17.10
2019-05-13T13:05:20.027Z,17.23
2019-05-13T13:07:34.926Z,17.49
2019-05-13T13:10:02.176Z,17.58
2019-05-13T13:12:36.118Z,17.75
2019-05-13T13:17:41.405Z,17.65
2019-05-13T13:20:14.914Z,17.41
2019-05-13T13:22:48.869Z,17.34
2019-05-13T13:25:23.549Z,17.12
2019-05-13T13:30:24.299Z,17.34
2019-05-13T13:32:55.045Z,17.36
2019-05-13T13:35:25.314Z,17.30
2019-05-13T13:37:55.334Z,17.76
2019-05-13T13:40:29.740Z,17.59
2019-05-13T13:42:58.652Z,17.65
2019-05-13T13:45:36.783Z,17.37
2019-05-13T13:48:04.385Z,17.44
2019-05-13T13:50:36.074Z,17.38
2019-05-13T13:53:06.134Z,17.32
2019-05-13T13:55:36.370Z,17.45
2019-05-13T13:58:09.181Z,17.81
2019-05-13T14:00:50.520Z,17.85
2019-05-13T14:03:12.343Z,18.03
2019-05-13T14:05:43.080Z,18.27
2019-05-13T14:07:13.040Z,17.74
2019-05-13T14:08:13.196Z,17.94
2019-05-13T14:10:43.506Z,17.91
2019-05-13T14:13:13.600Z,17.95
2019-05-13T14:15:43.601Z,18.17
2019-05-13T14:18:17.501Z,18.20
2019-05-13T14:20:47.668Z,17.67
2019-05-13T14:23:17.690Z,16.95
2019-05-13T14:25:48.027Z,16.88
2019-05-13T14:28:18.419Z,17.00
2019-05-13T14:30:51.410Z,17.39
2019-05-13T14:33:22.043Z,17.75
2019-05-13T14:35:53.193Z,17.89
2019-05-13T14:38:23.477Z,18.27
2019-05-13T14:40:53.910Z,18.48
2019-05-13T14:43:24.570Z,18.21
2019-05-13T14:45:57.762Z,17.81
2019-05-13T14:48:28.121Z,17.68
2019-05-13T14:50:59.045Z,17.24
2019-05-13T14:53:32.109Z,16.74
2019-05-13T14:56:03.334Z,16.51
2019-05-13T14:58:33.503Z,16.37
2019-05-13T15:01:15.900Z,15.97
2019-05-13T15:03:36.023Z,15.76
2019-05-13T15:06:06.320Z,15.55
2019-05-13T15:08:42.172Z,15.81
2019-05-13T15:11:12.689Z,16.13
2019-05-13T15:13:43.307Z,16.17
2019-05-13T15:16:13.586Z,16.21
2019-05-13T15:18:45.616Z,15.92
2019-05-13T15:21:15.811Z,15.95
2019-05-13T15:23:45.907Z,15.94
2019-05-13T15:26:17.791Z,16.23
2019-05-13T15:28:47.948Z,16.16
2019-05-13T15:31:18.124Z,15.83
2019-05-13T15:33:48.123Z,15.96
2019-05-13T15:36:22.384Z,16.05
2019-05-13T15:38:52.152Z,16.24
2019-05-13T15:41:22.751Z,16.35
2019-05-13T15:44:03.157Z,16.35
2019-05-13T15:46:32.423Z,16.38
2019-05-13T15:49:04.039Z,16.35
2019-05-13T15:51:34.258Z,16.06
2019-05-13T15:54:04.517Z,16.11
2019-05-13T15:56:34.716Z,16.20
2019-05-13T15:59:12.539Z,16.11
2019-05-13T16:01:43.939Z,15.95
2019-05-13T16:04:16.373Z,16.02
2019-05-13T16:06:46.447Z,16.12
2019-05-13T16:09:17.991Z,16.22
2019-05-13T16:11:48.665Z,16.16
2019-05-13T16:14:18.736Z,16.15
2019-05-13T16:16:49.983Z,16.32
2019-05-13T16:19:24.975Z,16.31
2019-05-13T16:21:55.126Z,16.11
2019-05-13T16:24:25.153Z,15.91
2019-05-13T16:26:55.743Z,15.59
2019-05-13T16:29:31.711Z,15.46
2019-05-13T16:32:05.420Z,15.24
2019-05-13T16:34:35.530Z,15.23
2019-05-13T16:37:05.618Z,15.16
2019-05-13T16:39:35.678Z,15.05
2019-05-13T16:42:05.835Z,14.97
2019-05-13T16:44:37.427Z,15.10
2019-05-13T16:47:08.068Z,15.17
2019-05-13T16:49:38.083Z,15.17
2019-05-13T16:52:08.731Z,15.17
2019-05-13T16:54:42.383Z,15.34
2019-05-13T16:57:16.769Z,15.05
2019-05-13T16:59:47.229Z,14.90
2019-05-13T17:02:17.237Z,14.75
2019-05-13T17:04:47.249Z,14.62
2019-05-13T17:07:27.435Z,14.50
2019-05-13T17:10:00.128Z,14.61
2019-05-13T17:12:31.615Z,14.67
2019-05-13T17:15:01.383Z,14.63
2019-05-13T17:17:32.315Z,14.56
2019-05-13T17:20:06.459Z,14.60
2019-05-13T17:22:47.123Z,14.54
2019-05-13T17:25:17.211Z,14.45
2019-05-13T17:27:54.422Z,14.28
2019-05-13T17:30:27.979Z,14.18
2019-05-13T17:33:05.647Z,14.12
2019-05-13T17:35:39.069Z,14.01
2019-05-13T17:38:11.415Z,13.78
2019-05-13T17:40:49.633Z,13.81
2019-05-13T17:43:16.040Z,13.76
2019-05-13T17:45:46.168Z,13.77
2019-05-13T17:48:26.797Z,13.70
2019-05-13T17:50:48.086Z,13.65
2019-05-13T17:53:21.676Z,13.63
2019-05-13T17:55:53.055Z,13.50
2019-05-13T17:58:23.454Z,13.30
2019-05-13T18:00:54.690Z,13.38
2019-05-13T18:03:27.935Z,13.18
2019-05-13T18:05:57.954Z,13.17
2019-05-13T18:08:27.958Z,13.15
2019-05-13T18:10:58.551Z,13.02
2019-05-13T18:13:28.643Z,12.92
2019-05-13T18:15:58.712Z,12.86
2019-05-13T18:18:42.634Z,12.72
2019-05-13T18:21:06.073Z,12.70
2019-05-13T18:23:36.078Z,12.61
2019-05-13T18:26:06.295Z,12.60
2019-05-13T18:28:37.378Z,12.56
2019-05-13T18:31:07.373Z,12.51
2019-05-13T18:33:37.398Z,12.48
2019-05-13T18:36:07.489Z,12.33
2019-05-13T18:38:37.512Z,12.30
2019-05-13T18:41:07.509Z,12.21
2019-05-13T18:43:41.162Z,12.20
2019-05-13T18:46:13.886Z,12.11
2019-05-13T18:48:58.079Z,12.09
2019-05-13T18:51:17.213Z,12.02
2019-05-13T18:53:47.233Z,12.00
2019-05-13T18:56:17.306Z,11.96
2019-05-13T18:58:47.330Z,11.91
2019-05-13T19:01:17.320Z,11.79
2019-05-13T19:03:47.341Z,11.64
2019-05-13T19:06:17.337Z,11.62
2019-05-13T19:08:47.435Z,11.57
2019-05-13T19:11:17.416Z,11.40
2019-05-13T19:13:47.637Z,11.32
2019-05-13T19:16:21.330Z,11.31
2019-05-13T19:18:51.063Z,11.24
2019-05-13T19:21:21.916Z,11.15
2019-05-13T19:23:52.019Z,11.15
2019-05-13T19:26:22.220Z,11.11
2019-05-13T19:28:53.783Z,11.05
2019-05-13T19:31:24.044Z,10.96
2019-05-13T19:33:54.077Z,10.85
2019-05-13T19:36:24.306Z,10.80
2019-05-13T19:38:56.590Z,10.80
2019-05-13T19:41:31.367Z,10.77
2019-05-13T19:44:01.614Z,10.76
2019-05-13T19:46:31.716Z,10.66
2019-05-13T19:49:01.821Z,10.63
2019-05-13T19:51:32.354Z,10.62
2019-05-13T19:54:04.068Z,10.49
2019-05-13T19:56:34.227Z,10.43
2019-05-13T19:59:04.298Z,10.43
2019-05-13T20:01:35.936Z,10.36
2019-05-13T20:04:05.966Z,10.29
2019-05-13T20:06:35.996Z,10.31
2019-05-13T20:09:07.426Z,10.20
2019-05-13T20:11:41.792Z,10.18
2019-05-13T20:14:12.202Z,10.16
2019-05-13T20:16:42.623Z,10.06
2019-05-13T20:19:12.785Z,10.02
2019-05-13T20:21:42.805Z,9.96
2019-05-13T20:24:12.832Z,9.97
2019-05-13T20:26:42.830Z,9.95
2019-05-13T20:29:14.292Z,9.84
2019-05-13T20:31:45.441Z,9.78
2019-05-13T20:34:16.966Z,9.79
2019-05-13T20:36:48.481Z,9.77
2019-05-13T20:39:24.053Z,9.74
2019-05-13T20:41:55.794Z,9.67
2019-05-13T20:44:25.994Z,9.67
2019-05-13T20:46:56.000Z,9.64
2019-05-13T20:49:25.987Z,9.63
2019-05-13T20:51:56.065Z,9.61
2019-05-13T20:54:27.308Z,9.61
2019-05-13T20:56:57.326Z,9.59
2019-05-13T20:59:27.896Z,9.57
2019-05-13T21:01:57.895Z,9.48
2019-05-13T21:04:27.896Z,9.42
2019-05-13T21:06:57.887Z,9.34
2019-05-13T21:09:31.686Z,9.30
2019-05-13T21:12:01.733Z,9.26
2019-05-13T21:14:32.027Z,9.21
2019-05-13T21:17:02.651Z,9.24
2019-05-13T21:19:39.387Z,9.26
2019-05-13T21:22:05.320Z,9.20
2019-05-13T21:24:38.371Z,9.20
2019-05-13T21:27:08.451Z,9.18
2019-05-13T21:29:38.494Z,9.12
2019-05-13T21:32:11.595Z,9.03
2019-05-13T21:34:41.209Z,8.98
2019-05-13T21:37:14.149Z,9.02
2019-05-13T21:39:44.163Z,9.04
2019-05-13T21:42:14.159Z,9.01
2019-05-13T21:44:44.166Z,8.92
2019-05-13T21:47:16.825Z,8.88
2019-05-13T21:49:47.008Z,8.88
2019-05-13T21:52:17.110Z,8.88
2019-05-13T21:54:47.185Z,8.86
2019-05-13T21:57:17.261Z,8.84
2019-05-13T21:59:47.401Z,8.80
2019-05-13T22:02:17.928Z,8.75
2019-05-13T22:04:51.714Z,8.73
2019-05-13T22:07:22.280Z,8.66
2019-05-13T22:09:52.433Z,8.55
2019-05-13T22:12:23.378Z,8.57
2019-05-13T22:14:53.359Z,8.52
2019-05-13T22:17:23.937Z,8.55
2019-05-13T22:19:53.949Z,8.53
2019-05-13T22:22:24.909Z,8.52
2019-05-13T22:24:54.905Z,8.48
2019-05-13T22:27:24.894Z,8.37
2019-05-13T22:29:54.899Z,8.29
2019-05-13T22:32:26.602Z,8.30
2019-05-13T22:34:57.171Z,8.22
2019-05-13T22:37:27.632Z,8.24
2019-05-13T22:39:57.640Z,8.15
2019-05-13T22:42:27.706Z,8.20
2019-05-13T22:44:57.725Z,8.21
2019-05-13T22:47:27.709Z,8.14
2019-05-13T22:49:58.160Z,8.20
2019-05-13T22:52:28.146Z,8.12
2019-05-13T22:54:58.149Z,8.14
2019-05-13T22:57:28.138Z,8.14
2019-05-13T22:59:58.218Z,8.14
2019-05-13T23:02:28.223Z,8.10
2019-05-13T23:04:58.221Z,8.07
2019-05-13T23:07:28.214Z,8.04
2019-05-13T23:09:58.230Z,8.00
2019-05-13T23:12:28.822Z,8.05
2019-05-13T23:15:01.171Z,8.04
2019-05-13T23:17:32.042Z,8.00
2019-05-13T23:20:02.246Z,7.95
2019-05-13T23:22:35.118Z,7.91
2019-05-13T23:25:08.900Z,7.93
2019-05-13T23:27:41.561Z,7.95
2019-05-13T23:30:11.861Z,7.88
2019-05-13T23:32:41.913Z,7.86
2019-05-13T23:35:12.162Z,7.83
2019-05-13T23:37:42.186Z,7.73
2019-05-13T23:40:12.361Z,7.68
2019-05-13T23:42:42.371Z,7.63
2019-05-13T23:45:15.369Z,7.58
2019-05-13T23:47:45.361Z,7.52
2019-05-13T23:50:15.506Z,7.50
2019-05-13T23:52:45.567Z,7.39
2019-05-13T23:55:15.817Z,7.33
2019-05-13T23:57:45.793Z,7.30
